Flight Track Log - Related Links

Times and Time Zones

All times are in EDT time to prevent confusion due to time zone crossing. See the UAL4553 flight status page for this flight to view local times or setup timezone preferences in your user account.

Time Position Orientation Groundspeed Altitude Reporting Facility
EDT Latitude Longitude Course Direction KTS MPH feet Rate Location/Type
Wed 06:52:52 PM 34.9503 -82.2725 283° West 239 275 5,200  Level Atlanta Center
Wed 06:53:52 PM 34.9536 -82.3586 273° West 268 308 6,800 2,000 Climbing Atlanta Center
Wed 06:54:00 PM 34.9021 -82.7081 276° West  Level FlightAware Approximate
Wed 06:54:52 PM 34.9528 -82.4522 269° West 274 315 9,200  Level Atlanta Center
Wed 06:55:00 PM 34.9124 -82.8318 276° West  Level FlightAware Approximate
Wed 06:55:52 PM 34.9519 -82.5564 269° West 291 335 11,000  Level Atlanta Center
Wed 06:56:00 PM 34.9167 -82.9558 270° West  Level FlightAware Approximate
Wed 06:56:52 PM 34.9511 -82.6653 269° West 310 357 12,500  Level Atlanta Center
Wed 06:57:52 PM 34.9522 -82.7819 271° West 324 373 14,000 1,500 Climbing Atlanta Center
Wed 06:58:52 PM 34.9514 -82.8983 270° West 337 388 15,500 1,650 Climbing Atlanta Center
Wed 06:59:52 PM 34.9525 -83.0303 271° West 357 411 17,300 1,500 Climbing Atlanta Center
Wed 07:00:52 PM 34.9514 -83.1519 269° West 362 417 18,500 1,500 Climbing Atlanta Center
Wed 07:01:52 PM 34.9481 -83.2786 268° West 362 417 20,300 1,850 Climbing Atlanta Center
Wed 07:02:52 PM 34.9194 -83.3803 251° West 335 386 22,200 1,550 Climbing Atlanta Center
Wed 07:03:52 PM 34.8742 -83.4844 242° Southwest 343 395 23,400 1,100 Climbing Atlanta Center
Wed 07:04:52 PM 34.8286 -83.5858 241° Southwest 362 417 24,400 1,200 Climbing Atlanta Center
Wed 07:05:52 PM 34.7831 -83.6972 244° Southwest 372 428 25,800 1,400 Climbing Atlanta Center
Wed 07:06:52 PM 34.7353 -83.8036 241° Southwest 367 422 27,200 1,350 Climbing Atlanta Center
Wed 07:07:52 PM 34.6811 -83.9225 241° Southwest 373 429 28,500 1,250 Climbing Atlanta Center
Wed 07:08:52 PM 34.6375 -84.0286 243° Southwest 365 420 29,700 1,200 Climbing Atlanta Center
Wed 07:09:52 PM 34.5914 -84.1322 242° Southwest 360 414 30,900 1,200 Climbing Atlanta Center
Wed 07:10:52 PM 34.5456 -84.2406 243° Southwest 360 414 32,100 1,250 Climbing Atlanta Center
Wed 07:11:52 PM 34.4972 -84.3439 240° Southwest 360 414 33,400 950 Climbing Atlanta Center
Wed 07:12:52 PM 34.4531 -84.4494 243° Southwest 360 414 34,000 650 Climbing Atlanta Center
Wed 07:13:52 PM 34.4025 -84.5600 241° Southwest 370 426 34,700 900 Climbing Atlanta Center
Wed 07:14:52 PM 34.3519 -84.6703 241° Southwest 376 433 35,800 650 Climbing Atlanta Center
Wed 07:15:52 PM 34.3056 -84.7806 243° Southwest 370 426 36,000 100 Climbing Atlanta Center
Wed 07:16:52 PM 34.2547 -84.8933 241° Southwest 381 438 36,000  Level Atlanta Center
Wed 07:17:52 PM 34.1975 -85.0133 240° Southwest 400 460 36,000  Level Atlanta Center
Wed 07:18:52 PM 34.1464 -85.1256 241° Southwest 395 455 36,000  Level Atlanta Center
Wed 07:19:52 PM 34.0953 -85.2378 241° Southwest 395 455 36,000  Level Atlanta Center
Wed 07:20:52 PM 34.0442 -85.3475 241° Southwest 388 447 36,000  Level Atlanta Center
Wed 07:21:52 PM 33.9928 -85.4619 242° Southwest 388 447 36,000  Level Atlanta Center
Wed 07:22:52 PM 33.9392 -85.5761 241° Southwest 394 453 36,000  Level Atlanta Center
Wed 07:23:52 PM 33.8919 -85.6831 242° Southwest 394 453 36,000  Level Atlanta Center
Wed 07:24:52 PM 33.8317 -85.8044 239° Southwest 399 459 36,000  Level Atlanta Center
Wed 07:25:52 PM 33.7736 -85.9256 240° Southwest 399 459 36,000  Level Atlanta Center
Wed 07:26:52 PM 33.7175 -86.0467 241° Southwest 404 465 36,000  Level Atlanta Center
Wed 07:27:52 PM 33.6611 -86.1653 240° Southwest 410 472 36,000  Level Atlanta Center
Wed 07:28:52 PM 33.6047 -86.2861 241° Southwest 410 472 36,000  Level Atlanta Center
Wed 07:29:52 PM 33.5481 -86.4092 241° Southwest 410 472 36,000  Level Atlanta Center
Wed 07:30:52 PM 33.4894 -86.5272 239° Southwest 415 478 36,000  Level Atlanta Center
Wed 07:31:52 PM 33.4328 -86.6475 241° Southwest 415 478 36,000  Level Atlanta Center
Wed 07:32:52 PM 33.3758 -86.7700 241° Southwest 415 478 36,000  Level Atlanta Center
Wed 07:33:52 PM 33.3147 -86.8900 239° Southwest 421 484 36,000  Level Atlanta Center
Wed 07:34:52 PM 33.2658 -87.0053 243° Southwest 421 484 36,000  Level Atlanta Center
Wed 07:35:52 PM 33.2025 -87.1247 238° Southwest 427 491 36,000  Level Atlanta Center
Wed 07:37:58 PM 33.0750 -87.3922 240° Southwest 429 494 36,000  Level Memphis Center
Wed 07:38:58 PM 33.0169 -87.5081 239° Southwest 422 486 36,000  Level Memphis Center
Wed 07:39:58 PM 32.9592 -87.6289 240° Southwest 422 486 36,000  Level Memphis Center
Wed 07:40:58 PM 32.9011 -87.7469 240° Southwest 422 486 36,000  Level Memphis Center
Wed 07:41:58 PM 32.8411 -87.8650 239° Southwest 422 486 36,000  Level Memphis Center
Wed 07:42:58 PM 32.7892 -87.9875 243° Southwest 422 486 36,000  Level Memphis Center
Wed 07:43:58 PM 32.7350 -88.1025 241° Southwest 417 480 36,000  Level Memphis Center
Wed 07:44:58 PM 32.6933 -88.2269 248° West 412 474 36,000  Level Memphis Center
Wed 07:45:58 PM 32.6536 -88.3536 250° West 406 467 36,000  Level Memphis Center
Wed 07:46:58 PM 32.6139 -88.4803 250° West 406 467 36,000  Level Memphis Center
Wed 07:47:58 PM 32.5719 -88.6069 249° West 413 475 36,000  Level Memphis Center
Wed 07:48:58 PM 32.5319 -88.7358 250° West 418 481 36,000  Level Memphis Center
Wed 07:49:58 PM 32.4917 -88.8622 249° West 413 475 36,000  Level Memphis Center
Wed 07:50:58 PM 32.4514 -88.9911 250° West 413 475 36,000  Level Memphis Center
Wed 07:51:58 PM 32.4089 -89.1197 249° West 413 475 36,000  Level Memphis Center
Wed 07:52:58 PM 32.3664 -89.2481 249° West 418 481 36,000  Level Memphis Center
Wed 07:53:58 PM 32.3236 -89.3764 249° West 418 481 36,000  Level Memphis Center
Wed 07:54:58 PM 32.2806 -89.5072 249° West 418 481 36,000  Level Memphis Center
Wed 07:55:58 PM 32.2378 -89.6378 249° West 423 487 36,000  Level Memphis Center
Wed 07:56:58 PM 32.1944 -89.7706 249° West 428 493 36,000  Level Memphis Center
Wed 07:57:58 PM 32.1514 -89.9058 249° West 436 502 36,000  Level Memphis Center
Wed 07:58:58 PM 32.1078 -90.0361 248° West 436 502 36,000  Level Memphis Center
Wed 07:59:57 PM 32.0622 -90.1686 248° West 436 502 36,000  Level Memphis Center
Wed 08:00:58 PM 32.0186 -90.2986 248° West 431 496 36,000  Level Memphis Center
Wed 08:01:58 PM 31.9725 -90.4333 248° West 437 503 36,000  Level Memphis Center
Wed 08:03:33 PM 31.9047 -90.6389 249° West 438 504 36,000  Level Houston Center
Wed 08:04:34 PM 31.8606 -90.7731 249° West 440 506 36,000  Level Houston Center
Wed 08:05:36 PM 31.8181 -90.8975 248° West 440 506 36,000  Level Houston Center
Wed 08:06:38 PM 31.7681 -91.0408 248° West 442 509 36,000  Level Houston Center
Wed 08:07:40 PM 31.7353 -91.2000 256° West 447 514 36,000  Level Houston Center
Wed 08:08:42 PM 31.7169 -91.3431 261° West 443 510 36,000  Level Houston Center
Wed 08:09:43 PM 31.7014 -91.4842 263° West 438 504 36,000  Level Houston Center
Wed 08:10:45 PM 31.6847 -91.6231 262° West 432 497 36,000  Level Houston Center
Wed 08:11:47 PM 31.6094 -91.7153 226° Southwest 415 478 36,000  Level Houston Center
Wed 08:12:49 PM 31.4972 -91.7464 193° South 413 475 36,000  Level Houston Center
Wed 08:13:51 PM 31.3631 -91.7944 197° South 419 482 36,000  Level Houston Center
Wed 08:14:52 PM 31.2483 -91.8361 197° South 428 493 36,000  Level Houston Center
Wed 08:15:54 PM 31.1350 -91.8761 197° South 424 488 36,000  Level Houston Center
Wed 08:16:56 PM 31.0194 -91.9164 197° South 427 491 36,000  Level Houston Center
Wed 08:17:58 PM 30.8997 -91.9492 193° South 438 504 36,000  Level Houston Center
Wed 08:19:00 PM 30.7926 -91.9939 200° South  Level FlightAware Approximate
Wed 08:19:00 PM 30.7792 -91.9761 200° South 438 504 36,000  Level Houston Center
Wed 08:20:01 PM 30.6600 -92.0111 194° South 439 505 36,000  Level Houston Center
Wed 08:21:03 PM 30.5428 -92.0569 199° South 440 506 36,000  Level Houston Center
Wed 08:22:05 PM 30.4244 -92.1628 218° Southwest 446 513 36,000  Level Houston Center
Wed 08:23:07 PM 30.3350 -92.2614 224° Southwest 441 507 36,000 -32 Level Houston Center
Wed 08:25:10 PM 30.1542 -92.4350 220° Southwest 440 506 35,900  Descending Houston Center
Wed 08:26:12 PM 30.0600 -92.5272 220° Southwest 441 507 36,000 48 Climbing Houston Center
Wed 08:27:14 PM 29.9478 -92.6353 220° Southwest 438 504 36,000  Level Houston Center
Wed 08:28:16 PM 29.8528 -92.7244 219° Southwest 439 505 36,000  Level Houston Center
Wed 08:29:18 PM 29.7589 -92.8150 220° Southwest 439 505 36,000  Level Houston Center
Wed 08:30:19 PM 29.6686 -92.9014 220° Southwest 427 491 36,000  Level Houston Center
Wed 08:31:21 PM 29.5808 -92.9853 220° Southwest 414 476 36,000 -435 Level Houston Center
Wed 08:32:23 PM 29.5017 -93.0842 227° Southwest 426 490 35,100 -1,161 Descending Houston Center
Wed 08:33:25 PM 29.4903 -93.2175 264° West 428 493 33,600 -1,452 Descending Houston Center
Wed 08:34:27 PM 29.4961 -93.3492 273° West 414 476 32,100 -1,854 Descending Houston Center
Wed 08:35:28 PM 29.5025 -93.5128 273° West 426 490 29,800 -2,634 Descending Houston Center
Wed 08:36:30 PM 29.5078 -93.6483 273° West 426 490 26,700 -3,290 Descending Houston Center
Wed 08:37:32 PM 29.5133 -93.7789 273° West 411 473 23,000 -3,463 Descending Houston Center
Wed 08:38:33 PM 29.5164 -93.8967 272° West 374 430 19,600 -2,976 Descending Houston Center
Wed 08:39:35 PM 29.5208 -94.0072 273° West 350 403 16,900 -2,658 Descending Houston Center
Wed 08:39:52 PM 29.5231 -94.0461 274° West 338 389 16,100 -2,129 Descending Houston Center
Wed 08:40:37 PM 29.5253 -94.1147 272° West 340 391 14,700 -1,755 Descending Houston Center
Wed 08:41:38 PM 29.5294 -94.2336 272° West 326 375 13,000 -829 Descending Houston Center
Wed 08:42:40 PM 29.5331 -94.3386 272° West 328 377 13,000 -484 Level Houston Center
Wed 08:43:42 PM 29.5661 -94.4211 295° West 284 327 12,000 -1,355 Descending Houston Center
Wed 08:44:44 PM 29.5997 -94.4986 297° West 273 314 10,200 -2,000 Descending Houston Center
Wed 08:45:45 PM 29.6319 -94.5739 296° West 265 305 7,900 -1,872 Descending Houston Center
Wed 08:46:49 PM 29.6686 -94.6644 295° West 265 305 6,300 -919 Descending Houston Center
Wed 08:47:49 PM 29.6961 -94.7272 297° West 265 305 6,000 -149 Descending Houston Center
Wed 08:48:50 PM 29.7356 -94.8183 297° West 266 306 6,000  Level Houston Center
Wed 08:49:47 PM 29.7664 -94.8928 296° West 268 308 6,000  Level Houston Center
Wed 08:50:53 PM 29.8003 -94.9706 297° West 267 307 6,000  Level Houston Center
Wed 08:51:55 PM 29.8322 -95.0456 296° West 266 306 6,000  Level Houston Center
Wed 08:52:51 PM 29.8639 -95.1264 294° West 266 306 6,000  Level Houston Center
Wed 08:53:58 PM 29.8958 -95.1983 297° West 267 307 6,000  Level Houston Center
Wed 08:55:00 PM 29.8994 -95.3011 272° West 274 315 6,000  Level Houston Center
Wed 08:56:01 PM 29.9003 -95.3886 271° West 275 316 6,000 -244 Level Houston Center
Wed 08:57:03 PM 29.9003 -95.4728 270° West 268 308 5,500 -1,024 Descending Houston Center
Wed 08:58:04 PM 29.9017 -95.5575 271° West 266 306 3,900 -1,304 Descending Houston Center
Wed 08:58:58 PM 29.9511 -95.5739 344° North 230 265 3,000 -1,000 Descending Houston Center

Login

Don't have an account? Register now (free) for customized features, flight alerts, and more!